sensor_id;sensor_type;location;lat;lon;timestamp;P1;durP1;ratioP1;P2;durP2;ratioP2
8993;SDS011;4532;50.886;4.700;2023-02-28T00:00:33;8.60;;;5.47;;
8993;SDS011;4532;50.886;4.700;2023-02-28T00:03:02;7.67;;;4.87;;
8993;SDS011;4532;50.886;4.700;2023-02-28T00:05:30;7.67;;;4.90;;
8993;SDS011;4532;50.886;4.700;2023-02-28T00:07:58;7.27;;;5.13;;
8993;SDS011;4532;50.886;4.700;2023-02-28T00:10:30;10.80;;;5.37;;
8993;SDS011;4532;50.886;4.700;2023-02-28T00:12:59;8.87;;;5.13;;
8993;SDS011;4532;50.886;4.700;2023-02-28T00:15:29;8.37;;;5.10;;
8993;SDS011;4532;50.886;4.700;2023-02-28T00:17:57;6.63;;;4.90;;
8993;SDS011;4532;50.886;4.700;2023-02-28T00:20:24;6.67;;;4.87;;
8993;SDS011;4532;50.886;4.700;2023-02-28T00:22:54;7.53;;;5.23;;
8993;SDS011;4532;50.886;4.700;2023-02-28T00:25:23;7.40;;;4.80;;
8993;SDS011;4532;50.886;4.700;2023-02-28T00:27:51;8.50;;;4.93;;
8993;SDS011;4532;50.886;4.700;2023-02-28T00:30:23;7.50;;;4.97;;
8993;SDS011;4532;50.886;4.700;2023-02-28T00:32:50;7.90;;;5.03;;
8993;SDS011;4532;50.886;4.700;2023-02-28T00:35:17;9.37;;;5.40;;
8993;SDS011;4532;50.886;4.700;2023-02-28T00:37:47;8.90;;;5.10;;
8993;SDS011;4532;50.886;4.700;2023-02-28T00:40:15;9.07;;;5.20;;
8993;SDS011;4532;50.886;4.700;2023-02-28T00:42:45;7.00;;;4.90;;
8993;SDS011;4532;50.886;4.700;2023-02-28T00:45:12;8.23;;;5.20;;
8993;SDS011;4532;50.886;4.700;2023-02-28T00:47:39;8.00;;;4.90;;
8993;SDS011;4532;50.886;4.700;2023-02-28T00:50:07;7.47;;;4.80;;
8993;SDS011;4532;50.886;4.700;2023-02-28T00:52:35;7.60;;;4.73;;
8993;SDS011;4532;50.886;4.700;2023-02-28T00:55:02;7.20;;;4.47;;
8993;SDS011;4532;50.886;4.700;2023-02-28T00:57:37;6.50;;;4.70;;
8993;SDS011;4532;50.886;4.700;2023-02-28T01:00:04;6.60;;;4.60;;
8993;SDS011;4532;50.886;4.700;2023-02-28T01:02:35;8.40;;;5.13;;
8993;SDS011;4532;50.886;4.700;2023-02-28T01:05:03;5.73;;;4.40;;
8993;SDS011;4532;50.886;4.700;2023-02-28T01:07:30;9.73;;;5.13;;
8993;SDS011;4532;50.886;4.700;2023-02-28T01:10:00;7.50;;;4.50;;
8993;SDS011;4532;50.886;4.700;2023-02-28T01:12:31;7.70;;;4.83;;
8993;SDS011;4532;50.886;4.700;2023-02-28T01:15:01;8.47;;;4.80;;
8993;SDS011;4532;50.886;4.700;2023-02-28T01:17:28;10.53;;;5.53;;
8993;SDS011;4532;50.886;4.700;2023-02-28T01:19:59;7.80;;;5.07;;
8993;SDS011;4532;50.886;4.700;2023-02-28T01:22:27;8.47;;;4.63;;
8993;SDS011;4532;50.886;4.700;2023-02-28T01:24:59;8.13;;;4.83;;
8993;SDS011;4532;50.886;4.700;2023-02-28T01:27:30;6.07;;;4.63;;
8993;SDS011;4532;50.886;4.700;2023-02-28T01:29:58;9.53;;;5.10;;
8993;SDS011;4532;50.886;4.700;2023-02-28T01:32:25;7.03;;;5.30;;
8993;SDS011;4532;50.886;4.700;2023-02-28T01:34:52;9.67;;;5.50;;
8993;SDS011;4532;50.886;4.700;2023-02-28T01:37:19;10.03;;;5.60;;
8993;SDS011;4532;50.886;4.700;2023-02-28T01:39:46;8.83;;;5.00;;
8993;SDS011;4532;50.886;4.700;2023-02-28T01:42:16;9.27;;;4.73;;
8993;SDS011;4532;50.886;4.700;2023-02-28T01:44:58;9.07;;;5.17;;
8993;SDS011;4532;50.886;4.700;2023-02-28T01:47:34;7.40;;;4.70;;
8993;SDS011;4532;50.886;4.700;2023-02-28T01:50:08;8.77;;;5.43;;
8993;SDS011;4532;50.886;4.700;2023-02-28T01:52:43;8.77;;;5.33;;
8993;SDS011;4532;50.886;4.700;2023-02-28T01:55:12;7.67;;;5.27;;
8993;SDS011;4532;50.886;4.700;2023-02-28T01:57:46;8.20;;;5.17;;
8993;SDS011;4532;50.886;4.700;2023-02-28T02:00:21;9.33;;;5.53;;
8993;SDS011;4532;50.886;4.700;2023-02-28T02:02:53;8.10;;;5.60;;
8993;SDS011;4532;50.886;4.700;2023-02-28T02:05:30;7.23;;;5.20;;
8993;SDS011;4532;50.886;4.700;2023-02-28T02:08:03;6.37;;;5.10;;
8993;SDS011;4532;50.886;4.700;2023-02-28T02:18:52;9.73;;;5.83;;
8993;SDS011;4532;50.886;4.700;2023-02-28T02:21:27;11.27;;;5.97;;
8993;SDS011;4532;50.886;4.700;2023-02-28T02:41:17;7.37;;;5.40;;
8993;SDS011;4532;50.886;4.700;2023-02-28T02:44:10;9.03;;;5.50;;
8993;SDS011;4532;50.886;4.700;2023-02-28T02:46:47;8.60;;;5.20;;
8993;SDS011;4532;50.886;4.700;2023-02-28T02:49:19;8.10;;;5.43;;
8993;SDS011;4532;50.886;4.700;2023-02-28T02:51:53;6.90;;;5.10;;
8993;SDS011;4532;50.886;4.700;2023-02-28T02:54:32;9.90;;;5.30;;
8993;SDS011;4532;50.886;4.700;2023-02-28T02:57:07;9.17;;;5.73;;
8993;SDS011;4532;50.886;4.700;2023-02-28T02:59:44;10.47;;;6.07;;
8993;SDS011;4532;50.886;4.700;2023-02-28T03:02:12;9.93;;;6.50;;
8993;SDS011;4532;50.886;4.700;2023-02-28T03:04:42;6.87;;;6.03;;
8993;SDS011;4532;50.886;4.700;2023-02-28T03:07:15;8.77;;;5.40;;
8993;SDS011;4532;50.886;4.700;2023-02-28T03:09:50;9.83;;;6.30;;
8993;SDS011;4532;50.886;4.700;2023-02-28T03:12:21;6.83;;;5.70;;
8993;SDS011;4532;50.886;4.700;2023-02-28T03:25:31;10.40;;;6.30;;
8993;SDS011;4532;50.886;4.700;2023-02-28T03:30:58;9.83;;;6.50;;
8993;SDS011;4532;50.886;4.700;2023-02-28T03:36:07;7.67;;;6.40;;
8993;SDS011;4532;50.886;4.700;2023-02-28T03:43:40;9.80;;;6.03;;
8993;SDS011;4532;50.886;4.700;2023-02-28T03:46:12;8.73;;;6.37;;
8993;SDS011;4532;50.886;4.700;2023-02-28T03:48:44;8.73;;;6.70;;
8993;SDS011;4532;50.886;4.700;2023-02-28T03:51:16;11.97;;;6.10;;
8993;SDS011;4532;50.886;4.700;2023-02-28T03:53:46;9.00;;;6.43;;
8993;SDS011;4532;50.886;4.700;2023-02-28T03:56:20;8.13;;;5.63;;
8993;SDS011;4532;50.886;4.700;2023-02-28T03:59:28;13.50;;;7.47;;
8993;SDS011;4532;50.886;4.700;2023-02-28T04:02:01;10.13;;;7.20;;
8993;SDS011;4532;50.886;4.700;2023-02-28T04:04:34;9.47;;;6.67;;
8993;SDS011;4532;50.886;4.700;2023-02-28T04:07:07;11.73;;;7.00;;
8993;SDS011;4532;50.886;4.700;2023-02-28T04:09:37;12.80;;;6.67;;
8993;SDS011;4532;50.886;4.700;2023-02-28T04:12:05;8.80;;;7.60;;
8993;SDS011;4532;50.886;4.700;2023-02-28T04:14:34;9.47;;;7.03;;
8993;SDS011;4532;50.886;4.700;2023-02-28T04:17:02;10.33;;;7.10;;
8993;SDS011;4532;50.886;4.700;2023-02-28T04:19:31;10.93;;;7.30;;
8993;SDS011;4532;50.886;4.700;2023-02-28T04:21:58;11.60;;;7.53;;
8993;SDS011;4532;50.886;4.700;2023-02-28T04:24:26;9.50;;;6.87;;
8993;SDS011;4532;50.886;4.700;2023-02-28T04:26:57;11.50;;;7.87;;
8993;SDS011;4532;50.886;4.700;2023-02-28T04:29:27;11.53;;;7.40;;
8993;SDS011;4532;50.886;4.700;2023-02-28T04:32:03;9.83;;;7.30;;
8993;SDS011;4532;50.886;4.700;2023-02-28T04:34:31;11.37;;;7.30;;
8993;SDS011;4532;50.886;4.700;2023-02-28T04:36:59;11.57;;;7.93;;
8993;SDS011;4532;50.886;4.700;2023-02-28T04:39:39;9.53;;;7.07;;
8993;SDS011;4532;50.886;4.700;2023-02-28T04:42:10;15.63;;;8.30;;
8993;SDS011;4532;50.886;4.700;2023-02-28T04:44:37;11.07;;;7.50;;
8993;SDS011;4532;50.886;4.700;2023-02-28T04:47:07;11.57;;;7.90;;
8993;SDS011;4532;50.886;4.700;2023-02-28T04:49:34;9.73;;;6.80;;
8993;SDS011;4532;50.886;4.700;2023-02-28T04:52:06;11.20;;;7.50;;
8993;SDS011;4532;50.886;4.700;2023-02-28T04:54:42;12.43;;;8.47;;
8993;SDS011;4532;50.886;4.700;2023-02-28T04:57:13;13.13;;;8.20;;
8993;SDS011;4532;50.886;4.700;2023-02-28T04:59:41;14.33;;;8.40;;
8993;SDS011;4532;50.886;4.700;2023-02-28T05:02:10;12.60;;;8.03;;
8993;SDS011;4532;50.886;4.700;2023-02-28T05:04:38;11.13;;;7.83;;
8993;SDS011;4532;50.886;4.700;2023-02-28T05:07:05;10.60;;;7.50;;
8993;SDS011;4532;50.886;4.700;2023-02-28T05:09:35;11.90;;;8.20;;
8993;SDS011;4532;50.886;4.700;2023-02-28T05:12:02;11.20;;;8.30;;
8993;SDS011;4532;50.886;4.700;2023-02-28T05:14:34;11.53;;;8.33;;
8993;SDS011;4532;50.886;4.700;2023-02-28T05:17:05;11.70;;;7.70;;
8993;SDS011;4532;50.886;4.700;2023-02-28T05:19:37;12.90;;;7.70;;
8993;SDS011;4532;50.886;4.700;2023-02-28T05:22:11;11.93;;;8.57;;
8993;SDS011;4532;50.886;4.700;2023-02-28T05:24:44;10.93;;;8.60;;
8993;SDS011;4532;50.886;4.700;2023-02-28T05:27:14;12.73;;;7.77;;
8993;SDS011;4532;50.886;4.700;2023-02-28T05:29:44;12.47;;;8.17;;
8993;SDS011;4532;50.886;4.700;2023-02-28T05:32:11;13.40;;;8.77;;
8993;SDS011;4532;50.886;4.700;2023-02-28T05:34:42;12.43;;;7.83;;
8993;SDS011;4532;50.886;4.700;2023-02-28T05:37:12;12.73;;;8.00;;
8993;SDS011;4532;50.886;4.700;2023-02-28T05:39:40;9.93;;;7.63;;
8993;SDS011;4532;50.886;4.700;2023-02-28T05:42:08;12.20;;;8.47;;
8993;SDS011;4532;50.886;4.700;2023-02-28T05:44:40;12.77;;;8.83;;
8993;SDS011;4532;50.886;4.700;2023-02-28T05:47:07;13.33;;;8.63;;
8993;SDS011;4532;50.886;4.700;2023-02-28T05:49:39;13.07;;;8.07;;
8993;SDS011;4532;50.886;4.700;2023-02-28T05:52:06;10.47;;;8.30;;
8993;SDS011;4532;50.886;4.700;2023-02-28T05:54:35;12.67;;;7.93;;
8993;SDS011;4532;50.886;4.700;2023-02-28T05:57:05;12.27;;;8.93;;
8993;SDS011;4532;50.886;4.700;2023-02-28T05:59:48;11.20;;;7.97;;
8993;SDS011;4532;50.886;4.700;2023-02-28T06:02:17;15.83;;;8.13;;
8993;SDS011;4532;50.886;4.700;2023-02-28T06:04:49;12.67;;;8.23;;
8993;SDS011;4532;50.886;4.700;2023-02-28T06:07:16;12.37;;;8.30;;
8993;SDS011;4532;50.886;4.700;2023-02-28T06:09:46;12.90;;;8.00;;
8993;SDS011;4532;50.886;4.700;2023-02-28T06:12:15;12.37;;;7.70;;
8993;SDS011;4532;50.886;4.700;2023-02-28T06:14:44;12.03;;;8.40;;
8993;SDS011;4532;50.886;4.700;2023-02-28T06:17:11;12.87;;;8.83;;
8993;SDS011;4532;50.886;4.700;2023-02-28T06:19:38;18.67;;;8.93;;
8993;SDS011;4532;50.886;4.700;2023-02-28T06:22:06;13.90;;;7.93;;
8993;SDS011;4532;50.886;4.700;2023-02-28T06:24:36;10.83;;;7.87;;
8993;SDS011;4532;50.886;4.700;2023-02-28T06:27:03;11.57;;;8.47;;
8993;SDS011;4532;50.886;4.700;2023-02-28T06:29:32;12.23;;;7.53;;
8993;SDS011;4532;50.886;4.700;2023-02-28T06:32:05;15.50;;;7.83;;
8993;SDS011;4532;50.886;4.700;2023-02-28T06:34:32;12.90;;;8.83;;
8993;SDS011;4532;50.886;4.700;2023-02-28T06:37:04;14.90;;;8.43;;
8993;SDS011;4532;50.886;4.700;2023-02-28T06:39:32;12.20;;;8.23;;
8993;SDS011;4532;50.886;4.700;2023-02-28T06:42:01;12.50;;;8.00;;
8993;SDS011;4532;50.886;4.700;2023-02-28T06:44:29;11.97;;;8.40;;
8993;SDS011;4532;50.886;4.700;2023-02-28T06:47:03;12.37;;;7.87;;
8993;SDS011;4532;50.886;4.700;2023-02-28T06:49:34;12.87;;;8.37;;
8993;SDS011;4532;50.886;4.700;2023-02-28T06:52:04;11.67;;;8.10;;
8993;SDS011;4532;50.886;4.700;2023-02-28T06:54:35;12.30;;;8.30;;
8993;SDS011;4532;50.886;4.700;2023-02-28T06:57:03;11.97;;;8.23;;
8993;SDS011;4532;50.886;4.700;2023-02-28T06:59:31;13.47;;;8.27;;
8993;SDS011;4532;50.886;4.700;2023-02-28T07:01:58;15.17;;;8.27;;
8993;SDS011;4532;50.886;4.700;2023-02-28T07:04:28;11.70;;;7.90;;
8993;SDS011;4532;50.886;4.700;2023-02-28T07:06:55;10.50;;;8.23;;
8993;SDS011;4532;50.886;4.700;2023-02-28T07:09:25;13.77;;;8.07;;
8993;SDS011;4532;50.886;4.700;2023-02-28T07:11:56;13.03;;;8.80;;
8993;SDS011;4532;50.886;4.700;2023-02-28T07:14:29;12.97;;;7.97;;
8993;SDS011;4532;50.886;4.700;2023-02-28T07:16:56;12.83;;;8.77;;
8993;SDS011;4532;50.886;4.700;2023-02-28T07:19:23;15.93;;;9.07;;
8993;SDS011;4532;50.886;4.700;2023-02-28T07:21:51;15.87;;;9.47;;
8993;SDS011;4532;50.886;4.700;2023-02-28T07:24:18;13.73;;;8.63;;
8993;SDS011;4532;50.886;4.700;2023-02-28T07:26:45;11.27;;;8.17;;
8993;SDS011;4532;50.886;4.700;2023-02-28T07:29:14;14.10;;;8.47;;
8993;SDS011;4532;50.886;4.700;2023-02-28T07:31:42;15.80;;;9.07;;
8993;SDS011;4532;50.886;4.700;2023-02-28T07:34:09;15.70;;;9.20;;
8993;SDS011;4532;50.886;4.700;2023-02-28T07:36:38;12.37;;;8.50;;
8993;SDS011;4532;50.886;4.700;2023-02-28T07:39:08;11.87;;;8.47;;
8993;SDS011;4532;50.886;4.700;2023-02-28T07:41:35;15.43;;;8.23;;
8993;SDS011;4532;50.886;4.700;2023-02-28T07:44:10;13.70;;;8.33;;
8993;SDS011;4532;50.886;4.700;2023-02-28T07:46:40;13.13;;;8.43;;
8993;SDS011;4532;50.886;4.700;2023-02-28T07:49:09;15.67;;;8.03;;
8993;SDS011;4532;50.886;4.700;2023-02-28T07:51:41;12.60;;;8.37;;
8993;SDS011;4532;50.886;4.700;2023-02-28T07:54:08;14.20;;;7.37;;
8993;SDS011;4532;50.886;4.700;2023-02-28T07:56:37;9.83;;;6.67;;
8993;SDS011;4532;50.886;4.700;2023-02-28T07:59:05;10.80;;;7.57;;
8993;SDS011;4532;50.886;4.700;2023-02-28T08:01:34;12.10;;;7.40;;
8993;SDS011;4532;50.886;4.700;2023-02-28T08:04:04;12.83;;;7.30;;
8993;SDS011;4532;50.886;4.700;2023-02-28T08:06:33;10.67;;;6.67;;
8993;SDS011;4532;50.886;4.700;2023-02-28T08:09:05;11.20;;;7.23;;
8993;SDS011;4532;50.886;4.700;2023-02-28T08:11:35;12.27;;;6.27;;
8993;SDS011;4532;50.886;4.700;2023-02-28T08:14:03;11.73;;;6.90;;
8993;SDS011;4532;50.886;4.700;2023-02-28T08:16:30;11.27;;;6.37;;
8993;SDS011;4532;50.886;4.700;2023-02-28T08:18:57;9.83;;;6.20;;
8993;SDS011;4532;50.886;4.700;2023-02-28T08:21:30;9.27;;;6.27;;
8993;SDS011;4532;50.886;4.700;2023-02-28T08:23:58;9.93;;;5.90;;
8993;SDS011;4532;50.886;4.700;2023-02-28T08:26:27;10.83;;;5.43;;
8993;SDS011;4532;50.886;4.700;2023-02-28T08:28:54;9.17;;;5.70;;
8993;SDS011;4532;50.886;4.700;2023-02-28T08:31:23;10.13;;;6.60;;
8993;SDS011;4532;50.886;4.700;2023-02-28T08:33:55;10.47;;;5.70;;
8993;SDS011;4532;50.886;4.700;2023-02-28T08:36:28;7.60;;;5.17;;
8993;SDS011;4532;50.886;4.700;2023-02-28T08:39:00;13.73;;;5.87;;
8993;SDS011;4532;50.886;4.700;2023-02-28T08:41:28;8.80;;;5.47;;
8993;SDS011;4532;50.886;4.700;2023-02-28T08:43:55;10.10;;;5.33;;
8993;SDS011;4532;50.886;4.700;2023-02-28T08:46:28;7.83;;;5.23;;
8993;SDS011;4532;50.886;4.700;2023-02-28T08:48:56;9.33;;;4.83;;
8993;SDS011;4532;50.886;4.700;2023-02-28T08:51:28;10.37;;;4.93;;
8993;SDS011;4532;50.886;4.700;2023-02-28T08:53:59;8.90;;;5.10;;
8993;SDS011;4532;50.886;4.700;2023-02-28T08:56:29;7.67;;;4.57;;
8993;SDS011;4532;50.886;4.700;2023-02-28T08:58:58;6.70;;;4.57;;
8993;SDS011;4532;50.886;4.700;2023-02-28T09:01:28;5.93;;;4.80;;
8993;SDS011;4532;50.886;4.700;2023-02-28T09:03:57;8.50;;;4.70;;
8993;SDS011;4532;50.886;4.700;2023-02-28T09:06:25;6.73;;;4.60;;
8993;SDS011;4532;50.886;4.700;2023-02-28T09:08:57;11.77;;;4.60;;
8993;SDS011;4532;50.886;4.700;2023-02-28T09:11:27;8.83;;;4.67;;
8993;SDS011;4532;50.886;4.700;2023-02-28T09:14:04;6.97;;;4.23;;
8993;SDS011;4532;50.886;4.700;2023-02-28T09:16:31;6.00;;;4.17;;
8993;SDS011;4532;50.886;4.700;2023-02-28T09:19:00;7.43;;;4.13;;
8993;SDS011;4532;50.886;4.700;2023-02-28T09:21:30;5.83;;;3.80;;
8993;SDS011;4532;50.886;4.700;2023-02-28T09:23:59;6.17;;;3.93;;
8993;SDS011;4532;50.886;4.700;2023-02-28T09:26:29;8.90;;;4.10;;
8993;SDS011;4532;50.886;4.700;2023-02-28T09:29:08;8.40;;;4.30;;
8993;SDS011;4532;50.886;4.700;2023-02-28T09:31:36;8.87;;;3.67;;
8993;SDS011;4532;50.886;4.700;2023-02-28T09:34:03;11.53;;;4.07;;
8993;SDS011;4532;50.886;4.700;2023-02-28T09:36:33;5.90;;;3.60;;
8993;SDS011;4532;50.886;4.700;2023-02-28T09:39:14;5.33;;;3.00;;
8993;SDS011;4532;50.886;4.700;2023-02-28T09:41:45;4.73;;;3.07;;
8993;SDS011;4532;50.886;4.700;2023-02-28T09:44:21;4.03;;;3.10;;
8993;SDS011;4532;50.886;4.700;2023-02-28T09:47:07;5.73;;;3.33;;
8993;SDS011;4532;50.886;4.700;2023-02-28T09:49:40;5.93;;;3.50;;
8993;SDS011;4532;50.886;4.700;2023-02-28T09:52:12;6.40;;;3.37;;
8993;SDS011;4532;50.886;4.700;2023-02-28T09:54:43;4.83;;;3.10;;
8993;SDS011;4532;50.886;4.700;2023-02-28T09:57:33;6.07;;;3.00;;
8993;SDS011;4532;50.886;4.700;2023-02-28T10:05:41;3.83;;;2.70;;
8993;SDS011;4532;50.886;4.700;2023-02-28T10:08:12;3.53;;;2.43;;
8993;SDS011;4532;50.886;4.700;2023-02-28T10:10:47;3.80;;;2.60;;
8993;SDS011;4532;50.886;4.700;2023-02-28T10:13:23;6.97;;;2.70;;
8993;SDS011;4532;50.886;4.700;2023-02-28T10:16:16;3.20;;;2.20;;
8993;SDS011;4532;50.886;4.700;2023-02-28T10:18:59;4.70;;;2.33;;
8993;SDS011;4532;50.886;4.700;2023-02-28T10:21:44;5.37;;;2.30;;
8993;SDS011;4532;50.886;4.700;2023-02-28T10:27:01;3.67;;;2.40;;
8993;SDS011;4532;50.886;4.700;2023-02-28T10:29:43;4.97;;;2.67;;
8993;SDS011;4532;50.886;4.700;2023-02-28T10:32:15;7.47;;;2.43;;
8993;SDS011;4532;50.886;4.700;2023-02-28T10:34:50;4.93;;;2.40;;
8993;SDS011;4532;50.886;4.700;2023-02-28T10:37:33;5.53;;;2.43;;
8993;SDS011;4532;50.886;4.700;2023-02-28T10:40:07;4.53;;;2.47;;
8993;SDS011;4532;50.886;4.700;2023-02-28T10:45:28;5.53;;;2.50;;
8993;SDS011;4532;50.886;4.700;2023-02-28T10:56:02;2.30;;;2.00;;
8993;SDS011;4532;50.886;4.700;2023-02-28T11:01:40;4.57;;;2.40;;
8993;SDS011;4532;50.886;4.700;2023-02-28T11:06:59;6.70;;;2.57;;
8993;SDS011;4532;50.886;4.700;2023-02-28T11:09:34;3.67;;;2.33;;
8993;SDS011;4532;50.886;4.700;2023-02-28T11:12:07;7.27;;;2.60;;
8993;SDS011;4532;50.886;4.700;2023-02-28T11:15:00;5.33;;;2.77;;
8993;SDS011;4532;50.886;4.700;2023-02-28T11:17:31;3.93;;;2.40;;
8993;SDS011;4532;50.886;4.700;2023-02-28T11:20:00;4.17;;;2.57;;
8993;SDS011;4532;50.886;4.700;2023-02-28T11:22:35;5.10;;;2.50;;
8993;SDS011;4532;50.886;4.700;2023-02-28T11:28:01;7.43;;;2.60;;
8993;SDS011;4532;50.886;4.700;2023-02-28T11:30:39;2.47;;;1.73;;
8993;SDS011;4532;50.886;4.700;2023-02-28T11:33:23;4.33;;;1.87;;
8993;SDS011;4532;50.886;4.700;2023-02-28T11:36:17;2.90;;;2.10;;
8993;SDS011;4532;50.886;4.700;2023-02-28T11:38:47;2.80;;;2.13;;
8993;SDS011;4532;50.886;4.700;2023-02-28T11:44:05;5.63;;;2.20;;
8993;SDS011;4532;50.886;4.700;2023-02-28T11:49:31;2.43;;;1.70;;
8993;SDS011;4532;50.886;4.700;2023-02-28T11:55:31;2.50;;;1.80;;
8993;SDS011;4532;50.886;4.700;2023-02-28T12:15:15;3.03;;;2.10;;
8993;SDS011;4532;50.886;4.700;2023-02-28T12:17:50;4.03;;;2.50;;
8993;SDS011;4532;50.886;4.700;2023-02-28T12:28:49;2.57;;;2.20;;
8993;SDS011;4532;50.886;4.700;2023-02-28T12:33:52;3.37;;;2.23;;
8993;SDS011;4532;50.886;4.700;2023-02-28T12:36:26;3.33;;;1.87;;
8993;SDS011;4532;50.886;4.700;2023-02-28T12:39:05;4.83;;;2.50;;
8993;SDS011;4532;50.886;4.700;2023-02-28T12:42:03;4.73;;;2.53;;
8993;SDS011;4532;50.886;4.700;2023-02-28T12:44:44;2.83;;;2.00;;
8993;SDS011;4532;50.886;4.700;2023-02-28T12:47:18;3.83;;;2.20;;
8993;SDS011;4532;50.886;4.700;2023-02-28T12:52:51;5.63;;;2.20;;
8993;SDS011;4532;50.886;4.700;2023-02-28T12:55:33;17.33;;;3.40;;
8993;SDS011;4532;50.886;4.700;2023-02-28T13:09:54;3.93;;;2.10;;
8993;SDS011;4532;50.886;4.700;2023-02-28T13:12:28;3.37;;;2.20;;
8993;SDS011;4532;50.886;4.700;2023-02-28T13:17:43;3.53;;;2.53;;
8993;SDS011;4532;50.886;4.700;2023-02-28T13:20:26;3.63;;;2.20;;
8993;SDS011;4532;50.886;4.700;2023-02-28T13:23:00;4.63;;;2.33;;
8993;SDS011;4532;50.886;4.700;2023-02-28T13:28:01;5.63;;;2.50;;
8993;SDS011;4532;50.886;4.700;2023-02-28T13:33:31;4.93;;;2.03;;
8993;SDS011;4532;50.886;4.700;2023-02-28T13:44:03;2.87;;;2.27;;
8993;SDS011;4532;50.886;4.700;2023-02-28T13:46:33;3.67;;;2.00;;
8993;SDS011;4532;50.886;4.700;2023-02-28T14:06:26;3.53;;;2.27;;
8993;SDS011;4532;50.886;4.700;2023-02-28T14:09:00;3.60;;;2.60;;
8993;SDS011;4532;50.886;4.700;2023-02-28T14:11:35;4.57;;;2.27;;
8993;SDS011;4532;50.886;4.700;2023-02-28T14:14:05;5.37;;;2.57;;
8993;SDS011;4532;50.886;4.700;2023-02-28T14:16:41;5.13;;;2.40;;
8993;SDS011;4532;50.886;4.700;2023-02-28T14:30:11;4.13;;;3.10;;
8993;SDS011;4532;50.886;4.700;2023-02-28T14:38:35;6.53;;;2.90;;
8993;SDS011;4532;50.886;4.700;2023-02-28T14:41:29;3.43;;;2.93;;
8993;SDS011;4532;50.886;4.700;2023-02-28T14:43:59;6.13;;;2.93;;
8993;SDS011;4532;50.886;4.700;2023-02-28T14:46:35;5.90;;;2.83;;
8993;SDS011;4532;50.886;4.700;2023-02-28T14:49:05;4.23;;;2.60;;
8993;SDS011;4532;50.886;4.700;2023-02-28T14:51:38;3.80;;;2.50;;
8993;SDS011;4532;50.886;4.700;2023-02-28T14:54:05;2.83;;;2.43;;
8993;SDS011;4532;50.886;4.700;2023-02-28T14:56:36;4.43;;;2.53;;
8993;SDS011;4532;50.886;4.700;2023-02-28T14:59:23;3.10;;;2.70;;
8993;SDS011;4532;50.886;4.700;2023-02-28T15:04:52;5.53;;;2.97;;
8993;SDS011;4532;50.886;4.700;2023-02-28T15:07:23;4.00;;;2.90;;
8993;SDS011;4532;50.886;4.700;2023-02-28T15:10:08;3.90;;;2.80;;
8993;SDS011;4532;50.886;4.700;2023-02-28T15:12:58;3.03;;;2.50;;
8993;SDS011;4532;50.886;4.700;2023-02-28T15:21:26;4.77;;;3.03;;
8993;SDS011;4532;50.886;4.700;2023-02-28T15:26:39;3.30;;;2.67;;
8993;SDS011;4532;50.886;4.700;2023-02-28T15:29:13;6.40;;;2.80;;
8993;SDS011;4532;50.886;4.700;2023-02-28T15:31:46;8.07;;;3.50;;
8993;SDS011;4532;50.886;4.700;2023-02-28T15:39:58;5.77;;;2.80;;
8993;SDS011;4532;50.886;4.700;2023-02-28T15:42:58;4.17;;;3.13;;
8993;SDS011;4532;50.886;4.700;2023-02-28T15:45:37;3.97;;;2.93;;
8993;SDS011;4532;50.886;4.700;2023-02-28T15:48:20;2.83;;;2.37;;
8993;SDS011;4532;50.886;4.700;2023-02-28T15:50:54;4.70;;;3.13;;
8993;SDS011;4532;50.886;4.700;2023-02-28T15:56:38;5.97;;;2.50;;
8993;SDS011;4532;50.886;4.700;2023-02-28T15:59:14;3.90;;;2.30;;
8993;SDS011;4532;50.886;4.700;2023-02-28T16:02:01;3.43;;;2.90;;
8993;SDS011;4532;50.886;4.700;2023-02-28T16:07:25;3.53;;;2.67;;
8993;SDS011;4532;50.886;4.700;2023-02-28T16:09:55;4.97;;;2.40;;
8993;SDS011;4532;50.886;4.700;2023-02-28T16:12:27;3.83;;;2.40;;
8993;SDS011;4532;50.886;4.700;2023-02-28T16:15:00;2.90;;;2.40;;
8993;SDS011;4532;50.886;4.700;2023-02-28T16:17:33;2.83;;;2.37;;
8993;SDS011;4532;50.886;4.700;2023-02-28T16:20:05;3.27;;;2.30;;
8993;SDS011;4532;50.886;4.700;2023-02-28T16:22:42;4.30;;;2.37;;
8993;SDS011;4532;50.886;4.700;2023-02-28T16:25:13;2.60;;;2.20;;
8993;SDS011;4532;50.886;4.700;2023-02-28T16:27:48;3.10;;;2.23;;
8993;SDS011;4532;50.886;4.700;2023-02-28T16:30:22;2.60;;;2.20;;
8993;SDS011;4532;50.886;4.700;2023-02-28T16:32:51;3.43;;;2.20;;
8993;SDS011;4532;50.886;4.700;2023-02-28T16:35:24;3.40;;;2.23;;
8993;SDS011;4532;50.886;4.700;2023-02-28T16:37:54;3.70;;;2.50;;
8993;SDS011;4532;50.886;4.700;2023-02-28T16:40:22;3.83;;;2.40;;
8993;SDS011;4532;50.886;4.700;2023-02-28T16:42:55;4.20;;;2.37;;
8993;SDS011;4532;50.886;4.700;2023-02-28T16:45:26;3.80;;;2.20;;
8993;SDS011;4532;50.886;4.700;2023-02-28T16:47:55;4.07;;;2.40;;
8993;SDS011;4532;50.886;4.700;2023-02-28T16:50:26;4.60;;;2.77;;
8993;SDS011;4532;50.886;4.700;2023-02-28T16:52:56;4.33;;;2.53;;
8993;SDS011;4532;50.886;4.700;2023-02-28T16:55:24;2.97;;;2.17;;
8993;SDS011;4532;50.886;4.700;2023-02-28T16:57:55;4.07;;;2.60;;
8993;SDS011;4532;50.886;4.700;2023-02-28T17:00:24;6.17;;;2.60;;
8993;SDS011;4532;50.886;4.700;2023-02-28T17:02:52;3.53;;;2.53;;
8993;SDS011;4532;50.886;4.700;2023-02-28T17:05:25;4.37;;;2.50;;
8993;SDS011;4532;50.886;4.700;2023-02-28T17:07:53;4.27;;;2.27;;
8993;SDS011;4532;50.886;4.700;2023-02-28T17:10:23;4.03;;;2.40;;
8993;SDS011;4532;50.886;4.700;2023-02-28T17:12:55;3.40;;;2.73;;
8993;SDS011;4532;50.886;4.700;2023-02-28T17:15:38;3.43;;;2.50;;
8993;SDS011;4532;50.886;4.700;2023-02-28T17:18:08;3.10;;;2.80;;
8993;SDS011;4532;50.886;4.700;2023-02-28T17:20:48;5.00;;;2.97;;
8993;SDS011;4532;50.886;4.700;2023-02-28T17:23:18;5.07;;;2.90;;
8993;SDS011;4532;50.886;4.700;2023-02-28T17:25:47;3.57;;;2.93;;
8993;SDS011;4532;50.886;4.700;2023-02-28T17:28:26;3.97;;;2.70;;
8993;SDS011;4532;50.886;4.700;2023-02-28T17:30:55;6.20;;;2.50;;
8993;SDS011;4532;50.886;4.700;2023-02-28T17:33:24;4.57;;;2.70;;
8993;SDS011;4532;50.886;4.700;2023-02-28T17:35:51;4.17;;;2.50;;
8993;SDS011;4532;50.886;4.700;2023-02-28T17:38:24;4.97;;;2.83;;
8993;SDS011;4532;50.886;4.700;2023-02-28T17:40:53;5.47;;;3.00;;
8993;SDS011;4532;50.886;4.700;2023-02-28T17:43:24;5.70;;;3.13;;
8993;SDS011;4532;50.886;4.700;2023-02-28T17:45:59;5.50;;;3.00;;
8993;SDS011;4532;50.886;4.700;2023-02-28T17:48:26;4.80;;;2.63;;
8993;SDS011;4532;50.886;4.700;2023-02-28T17:50:58;4.77;;;2.97;;
8993;SDS011;4532;50.886;4.700;2023-02-28T17:53:25;4.63;;;3.00;;
8993;SDS011;4532;50.886;4.700;2023-02-28T17:55:55;5.53;;;2.93;;
8993;SDS011;4532;50.886;4.700;2023-02-28T17:58:27;5.13;;;3.43;;
8993;SDS011;4532;50.886;4.700;2023-02-28T18:00:57;4.27;;;3.00;;
8993;SDS011;4532;50.886;4.700;2023-02-28T18:03:30;6.60;;;3.87;;
8993;SDS011;4532;50.886;4.700;2023-02-28T18:05:58;5.03;;;3.13;;
8993;SDS011;4532;50.886;4.700;2023-02-28T18:08:26;5.00;;;3.37;;
8993;SDS011;4532;50.886;4.700;2023-02-28T18:10:53;8.70;;;3.10;;
8993;SDS011;4532;50.886;4.700;2023-02-28T18:13:21;5.17;;;3.53;;
8993;SDS011;4532;50.886;4.700;2023-02-28T18:15:48;6.60;;;3.67;;
8993;SDS011;4532;50.886;4.700;2023-02-28T18:18:18;5.03;;;3.40;;
8993;SDS011;4532;50.886;4.700;2023-02-28T18:20:45;4.63;;;3.43;;
8993;SDS011;4532;50.886;4.700;2023-02-28T18:23:17;6.67;;;4.03;;
8993;SDS011;4532;50.886;4.700;2023-02-28T18:25:46;5.00;;;3.50;;
8993;SDS011;4532;50.886;4.700;2023-02-28T18:28:15;6.07;;;3.93;;
8993;SDS011;4532;50.886;4.700;2023-02-28T18:30:45;7.50;;;3.73;;
8993;SDS011;4532;50.886;4.700;2023-02-28T18:33:12;5.50;;;4.03;;
8993;SDS011;4532;50.886;4.700;2023-02-28T18:35:44;7.30;;;3.50;;
8993;SDS011;4532;50.886;4.700;2023-02-28T18:38:16;4.67;;;3.43;;
8993;SDS011;4532;50.886;4.700;2023-02-28T18:40:54;6.13;;;3.17;;
8993;SDS011;4532;50.886;4.700;2023-02-28T18:43:25;4.40;;;3.10;;
8993;SDS011;4532;50.886;4.700;2023-02-28T18:45:56;4.43;;;3.47;;
8993;SDS011;4532;50.886;4.700;2023-02-28T18:48:28;5.57;;;4.00;;
8993;SDS011;4532;50.886;4.700;2023-02-28T18:50:57;5.73;;;3.40;;
8993;SDS011;4532;50.886;4.700;2023-02-28T18:53:27;5.93;;;3.50;;
8993;SDS011;4532;50.886;4.700;2023-02-28T18:55:59;6.03;;;3.40;;
8993;SDS011;4532;50.886;4.700;2023-02-28T18:58:29;6.63;;;3.77;;